sensor_id;sensor_type;location;lat;lon;timestamp;temperature;humidity
23987;DHT22;12514;52.140;5.602;2022-08-18T00:00:05;19.50;99.90
23987;DHT22;12514;52.140;5.602;2022-08-18T00:02:31;19.30;99.90
23987;DHT22;12514;52.140;5.602;2022-08-18T00:04:57;19.00;99.90
23987;DHT22;12514;52.140;5.602;2022-08-18T00:07:28;19.10;99.90
23987;DHT22;12514;52.140;5.602;2022-08-18T00:09:54;19.00;99.90
23987;DHT22;12514;52.140;5.602;2022-08-18T00:15:41;19.10;99.90
23987;DHT22;12514;52.140;5.602;2022-08-18T00:18:07;19.40;99.90
23987;DHT22;12514;52.140;5.602;2022-08-18T00:20:33;19.40;99.90
23987;DHT22;12514;52.140;5.602;2022-08-18T00:22:58;19.50;99.90
23987;DHT22;12514;52.140;5.602;2022-08-18T00:25:24;19.60;99.90
23987;DHT22;12514;52.140;5.602;2022-08-18T00:27:50;19.70;99.90
23987;DHT22;12514;52.140;5.602;2022-08-18T00:30:18;19.80;99.90
23987;DHT22;12514;52.140;5.602;2022-08-18T00:32:53;19.80;99.90
23987;DHT22;12514;52.140;5.602;2022-08-18T00:35:26;19.90;99.90
23987;DHT22;12514;52.140;5.602;2022-08-18T00:37:54;19.90;99.90
23987;DHT22;12514;52.140;5.602;2022-08-18T00:40:27;19.90;99.90
23987;DHT22;12514;52.140;5.602;2022-08-18T00:42:57;19.90;99.90
23987;DHT22;12514;52.140;5.602;2022-08-18T00:45:28;19.90;99.90
23987;DHT22;12514;52.140;5.602;2022-08-18T00:47:55;20.00;99.90
23987;DHT22;12514;52.140;5.602;2022-08-18T00:53:11;20.00;99.90
23987;DHT22;12514;52.140;5.602;2022-08-18T00:55:39;19.90;99.90
23987;DHT22;12514;52.140;5.602;2022-08-18T00:58:10;19.50;99.90
23987;DHT22;12514;52.140;5.602;2022-08-18T01:00:37;19.50;99.90
23987;DHT22;12514;52.140;5.602;2022-08-18T01:03:08;19.60;99.90
23987;DHT22;12514;52.140;5.602;2022-08-18T01:05:38;19.70;99.90
23987;DHT22;12514;52.140;5.602;2022-08-18T01:08:08;19.90;99.90
23987;DHT22;12514;52.140;5.602;2022-08-18T01:10:36;19.60;99.90
23987;DHT22;12514;52.140;5.602;2022-08-18T01:13:03;19.20;99.90
23987;DHT22;12514;52.140;5.602;2022-08-18T01:15:28;19.20;99.90
23987;DHT22;12514;52.140;5.602;2022-08-18T01:17:58;19.30;99.90
23987;DHT22;12514;52.140;5.602;2022-08-18T01:21:11;19.40;99.90
23987;DHT22;12514;52.140;5.602;2022-08-18T01:24:11;19.50;99.90
23987;DHT22;12514;52.140;5.602;2022-08-18T01:26:39;19.50;99.90
23987;DHT22;12514;52.140;5.602;2022-08-18T01:29:09;19.60;99.90
23987;DHT22;12514;52.140;5.602;2022-08-18T01:31:40;19.70;99.90
23987;DHT22;12514;52.140;5.602;2022-08-18T01:34:08;19.90;99.90
23987;DHT22;12514;52.140;5.602;2022-08-18T01:36:36;20.00;99.90
23987;DHT22;12514;52.140;5.602;2022-08-18T01:39:05;20.00;99.90
23987;DHT22;12514;52.140;5.602;2022-08-18T01:41:31;19.90;99.90
23987;DHT22;12514;52.140;5.602;2022-08-18T01:43:58;19.90;99.90
23987;DHT22;12514;52.140;5.602;2022-08-18T01:46:26;20.00;99.90
23987;DHT22;12514;52.140;5.602;2022-08-18T01:48:53;20.10;99.90
23987;DHT22;12514;52.140;5.602;2022-08-18T01:51:18;20.20;99.90
23987;DHT22;12514;52.140;5.602;2022-08-18T01:53:46;20.10;99.90
23987;DHT22;12514;52.140;5.602;2022-08-18T01:56:13;20.10;99.90
23987;DHT22;12514;52.140;5.602;2022-08-18T01:58:42;20.10;99.90
23987;DHT22;12514;52.140;5.602;2022-08-18T02:01:08;20.20;99.90
23987;DHT22;12514;52.140;5.602;2022-08-18T02:03:40;20.20;99.90
23987;DHT22;12514;52.140;5.602;2022-08-18T02:06:12;19.90;99.90
23987;DHT22;12514;52.140;5.602;2022-08-18T02:08:38;19.60;99.90
23987;DHT22;12514;52.140;5.602;2022-08-18T02:11:05;19.50;99.90
23987;DHT22;12514;52.140;5.602;2022-08-18T02:13:31;19.50;99.90
23987;DHT22;12514;52.140;5.602;2022-08-18T02:15:57;19.50;99.90
23987;DHT22;12514;52.140;5.602;2022-08-18T02:18:25;19.50;99.90
23987;DHT22;12514;52.140;5.602;2022-08-18T02:20:53;19.50;99.90
23987;DHT22;12514;52.140;5.602;2022-08-18T02:23:19;19.50;99.90
23987;DHT22;12514;52.140;5.602;2022-08-18T02:25:45;19.70;99.90
23987;DHT22;12514;52.140;5.602;2022-08-18T02:31:32;20.00;99.90
23987;DHT22;12514;52.140;5.602;2022-08-18T02:33:58;20.10;99.90
23987;DHT22;12514;52.140;5.602;2022-08-18T02:36:23;20.20;99.90
23987;DHT22;12514;52.140;5.602;2022-08-18T02:38:49;20.20;99.90
23987;DHT22;12514;52.140;5.602;2022-08-18T02:41:15;20.20;99.90
23987;DHT22;12514;52.140;5.602;2022-08-18T02:43:40;20.30;99.90
23987;DHT22;12514;52.140;5.602;2022-08-18T02:46:07;20.30;99.90
23987;DHT22;12514;52.140;5.602;2022-08-18T02:48:33;20.40;99.90
23987;DHT22;12514;52.140;5.602;2022-08-18T02:53:30;20.20;99.90
23987;DHT22;12514;52.140;5.602;2022-08-18T03:02:12;20.40;99.90
23987;DHT22;12514;52.140;5.602;2022-08-18T03:04:38;20.40;99.90
23987;DHT22;12514;52.140;5.602;2022-08-18T03:07:05;20.40;99.90
23987;DHT22;12514;52.140;5.602;2022-08-18T03:09:32;20.40;99.90
23987;DHT22;12514;52.140;5.602;2022-08-18T03:11:59;20.40;99.90
23987;DHT22;12514;52.140;5.602;2022-08-18T03:14:24;20.40;99.90
23987;DHT22;12514;52.140;5.602;2022-08-18T03:16:50;20.20;99.90
23987;DHT22;12514;52.140;5.602;2022-08-18T03:19:16;20.20;99.90
23987;DHT22;12514;52.140;5.602;2022-08-18T03:21:46;20.20;99.90
23987;DHT22;12514;52.140;5.602;2022-08-18T03:24:12;20.10;99.90
23987;DHT22;12514;52.140;5.602;2022-08-18T03:26:43;20.00;99.90
23987;DHT22;12514;52.140;5.602;2022-08-18T03:29:09;20.00;99.90
23987;DHT22;12514;52.140;5.602;2022-08-18T03:31:35;20.10;99.90
23987;DHT22;12514;52.140;5.602;2022-08-18T03:34:04;20.10;99.90
23987;DHT22;12514;52.140;5.602;2022-08-18T03:36:31;19.90;99.90
23987;DHT22;12514;52.140;5.602;2022-08-18T03:39:00;20.00;99.90
23987;DHT22;12514;52.140;5.602;2022-08-18T03:41:26;20.10;99.90
23987;DHT22;12514;52.140;5.602;2022-08-18T03:43:52;20.10;99.90
23987;DHT22;12514;52.140;5.602;2022-08-18T03:46:19;19.90;99.90
23987;DHT22;12514;52.140;5.602;2022-08-18T03:48:46;19.70;99.90
23987;DHT22;12514;52.140;5.602;2022-08-18T03:51:21;19.50;99.90
23987;DHT22;12514;52.140;5.602;2022-08-18T03:53:49;19.20;99.90
23987;DHT22;12514;52.140;5.602;2022-08-18T03:56:18;19.30;99.90
23987;DHT22;12514;52.140;5.602;2022-08-18T04:02:06;19.60;99.90
23987;DHT22;12514;52.140;5.602;2022-08-18T04:04:32;19.60;99.90
23987;DHT22;12514;52.140;5.602;2022-08-18T04:07:00;19.40;99.90
23987;DHT22;12514;52.140;5.602;2022-08-18T04:09:30;19.40;99.90
23987;DHT22;12514;52.140;5.602;2022-08-18T04:11:57;19.30;99.90
23987;DHT22;12514;52.140;5.602;2022-08-18T04:14:26;19.30;99.90
23987;DHT22;12514;52.140;5.602;2022-08-18T04:16:57;19.40;99.90
23987;DHT22;12514;52.140;5.602;2022-08-18T04:19:23;19.40;99.90
23987;DHT22;12514;52.140;5.602;2022-08-18T04:21:51;19.30;99.90
23987;DHT22;12514;52.140;5.602;2022-08-18T04:24:17;19.40;99.90
23987;DHT22;12514;52.140;5.602;2022-08-18T04:26:46;19.50;99.90
23987;DHT22;12514;52.140;5.602;2022-08-18T04:29:13;19.50;99.90
23987;DHT22;12514;52.140;5.602;2022-08-18T04:31:39;19.50;99.90
23987;DHT22;12514;52.140;5.602;2022-08-18T04:34:05;19.40;99.90
23987;DHT22;12514;52.140;5.602;2022-08-18T04:36:32;19.30;99.90
23987;DHT22;12514;52.140;5.602;2022-08-18T04:39:02;19.30;99.90
23987;DHT22;12514;52.140;5.602;2022-08-18T04:41:29;19.20;99.90
23987;DHT22;12514;52.140;5.602;2022-08-18T04:47:57;19.20;99.90
23987;DHT22;12514;52.140;5.602;2022-08-18T04:50:23;19.10;99.90
23987;DHT22;12514;52.140;5.602;2022-08-18T04:52:49;19.10;99.90
23987;DHT22;12514;52.140;5.602;2022-08-18T04:55:33;19.00;99.90
23987;DHT22;12514;52.140;5.602;2022-08-18T04:57:58;19.00;99.90
23987;DHT22;12514;52.140;5.602;2022-08-18T05:00:24;19.20;99.90
23987;DHT22;12514;52.140;5.602;2022-08-18T05:02:50;19.30;99.90
23987;DHT22;12514;52.140;5.602;2022-08-18T05:05:18;19.40;99.90
23987;DHT22;12514;52.140;5.602;2022-08-18T05:07:45;19.40;99.90
23987;DHT22;12514;52.140;5.602;2022-08-18T05:10:11;19.50;99.90
23987;DHT22;12514;52.140;5.602;2022-08-18T05:12:37;19.30;99.90
23987;DHT22;12514;52.140;5.602;2022-08-18T05:15:06;19.40;99.90
23987;DHT22;12514;52.140;5.602;2022-08-18T05:17:36;19.40;99.90
23987;DHT22;12514;52.140;5.602;2022-08-18T05:20:05;19.40;99.90
23987;DHT22;12514;52.140;5.602;2022-08-18T05:22:37;19.40;99.90
23987;DHT22;12514;52.140;5.602;2022-08-18T05:25:04;19.30;99.90
23987;DHT22;12514;52.140;5.602;2022-08-18T05:27:31;19.20;99.90
23987;DHT22;12514;52.140;5.602;2022-08-18T05:29:57;19.10;99.90
23987;DHT22;12514;52.140;5.602;2022-08-18T05:32:23;19.00;99.90
23987;DHT22;12514;52.140;5.602;2022-08-18T05:34:48;19.00;99.90
23987;DHT22;12514;52.140;5.602;2022-08-18T05:37:27;19.10;99.90
23987;DHT22;12514;52.140;5.602;2022-08-18T05:40:00;18.80;99.90
23987;DHT22;12514;52.140;5.602;2022-08-18T05:42:30;18.90;99.90
23987;DHT22;12514;52.140;5.602;2022-08-18T05:44:59;18.90;99.90
23987;DHT22;12514;52.140;5.602;2022-08-18T05:47:30;19.10;99.90
23987;DHT22;12514;52.140;5.602;2022-08-18T05:50:03;19.00;99.90
23987;DHT22;12514;52.140;5.602;2022-08-18T05:55:02;19.00;99.90
23987;DHT22;12514;52.140;5.602;2022-08-18T05:58:21;19.00;99.90
23987;DHT22;12514;52.140;5.602;2022-08-18T06:00:55;19.00;99.90
23987;DHT22;12514;52.140;5.602;2022-08-18T06:03:43;18.90;99.90
23987;DHT22;12514;52.140;5.602;2022-08-18T06:06:14;19.10;99.90
23987;DHT22;12514;52.140;5.602;2022-08-18T06:08:51;19.30;99.90
23987;DHT22;12514;52.140;5.602;2022-08-18T06:11:20;19.40;99.90
23987;DHT22;12514;52.140;5.602;2022-08-18T06:13:46;19.60;99.90
23987;DHT22;12514;52.140;5.602;2022-08-18T06:24:43;20.20;99.90
23987;DHT22;12514;52.140;5.602;2022-08-18T06:27:25;20.10;99.90
23987;DHT22;12514;52.140;5.602;2022-08-18T06:36:24;20.20;99.90
23987;DHT22;12514;52.140;5.602;2022-08-18T06:39:28;20.50;99.90
23987;DHT22;12514;52.140;5.602;2022-08-18T06:41:55;20.60;99.90
23987;DHT22;12514;52.140;5.602;2022-08-18T06:44:46;20.30;99.90
23987;DHT22;12514;52.140;5.602;2022-08-18T06:47:47;20.50;99.90
23987;DHT22;12514;52.140;5.602;2022-08-18T06:50:27;20.40;99.90
23987;DHT22;12514;52.140;5.602;2022-08-18T06:52:57;20.40;99.90
23987;DHT22;12514;52.140;5.602;2022-08-18T06:55:42;20.50;99.90
23987;DHT22;12514;52.140;5.602;2022-08-18T06:58:28;20.60;99.90
23987;DHT22;12514;52.140;5.602;2022-08-18T07:03:40;20.60;99.90
23987;DHT22;12514;52.140;5.602;2022-08-18T07:06:09;20.60;99.90
23987;DHT22;12514;52.140;5.602;2022-08-18T07:08:41;20.90;99.90
23987;DHT22;12514;52.140;5.602;2022-08-18T07:11:17;20.80;99.90
23987;DHT22;12514;52.140;5.602;2022-08-18T07:13:46;20.90;99.90
23987;DHT22;12514;52.140;5.602;2022-08-18T07:18:54;21.10;99.90
23987;DHT22;12514;52.140;5.602;2022-08-18T07:21:39;21.30;99.90
23987;DHT22;12514;52.140;5.602;2022-08-18T07:24:08;21.40;99.90
23987;DHT22;12514;52.140;5.602;2022-08-18T07:27:06;21.50;99.90
23987;DHT22;12514;52.140;5.602;2022-08-18T07:29:56;21.50;99.90
23987;DHT22;12514;52.140;5.602;2022-08-18T07:32:27;21.50;99.90
23987;DHT22;12514;52.140;5.602;2022-08-18T07:34:56;21.50;99.90
23987;DHT22;12514;52.140;5.602;2022-08-18T07:37:42;21.50;99.90
23987;DHT22;12514;52.140;5.602;2022-08-18T07:40:20;21.70;99.90
23987;DHT22;12514;52.140;5.602;2022-08-18T07:45:26;21.90;99.90
23987;DHT22;12514;52.140;5.602;2022-08-18T07:50:26;21.80;99.90
23987;DHT22;12514;52.140;5.602;2022-08-18T07:55:39;22.00;99.90
23987;DHT22;12514;52.140;5.602;2022-08-18T08:04:16;22.40;99.90
23987;DHT22;12514;52.140;5.602;2022-08-18T08:07:05;22.30;99.90
23987;DHT22;12514;52.140;5.602;2022-08-18T08:18:52;22.10;99.90
23987;DHT22;12514;52.140;5.602;2022-08-18T08:21:22;22.20;99.90
23987;DHT22;12514;52.140;5.602;2022-08-18T08:23:55;22.40;99.90
23987;DHT22;12514;52.140;5.602;2022-08-18T08:26:35;22.40;99.90
23987;DHT22;12514;52.140;5.602;2022-08-18T08:32:10;22.70;99.90
23987;DHT22;12514;52.140;5.602;2022-08-18T08:37:17;22.80;99.90
23987;DHT22;12514;52.140;5.602;2022-08-18T08:40:15;22.80;99.90
23987;DHT22;12514;52.140;5.602;2022-08-18T08:43:14;22.70;99.90
23987;DHT22;12514;52.140;5.602;2022-08-18T08:45:47;22.80;99.90
23987;DHT22;12514;52.140;5.602;2022-08-18T08:48:22;22.70;99.90
23987;DHT22;12514;52.140;5.602;2022-08-18T08:51:20;22.70;99.90
23987;DHT22;12514;52.140;5.602;2022-08-18T08:53:52;22.90;99.90
23987;DHT22;12514;52.140;5.602;2022-08-18T08:56:29;23.10;99.90
23987;DHT22;12514;52.140;5.602;2022-08-18T09:05:32;23.60;99.90
23987;DHT22;12514;52.140;5.602;2022-08-18T09:08:06;23.60;99.90
23987;DHT22;12514;52.140;5.602;2022-08-18T09:23:07;23.70;99.90
23987;DHT22;12514;52.140;5.602;2022-08-18T09:28:21;23.40;99.90
23987;DHT22;12514;52.140;5.602;2022-08-18T09:42:05;23.90;99.90
23987;DHT22;12514;52.140;5.602;2022-08-18T09:52:56;24.20;99.90
23987;DHT22;12514;52.140;5.602;2022-08-18T10:06:44;24.00;99.90
23987;DHT22;12514;52.140;5.602;2022-08-18T10:20:31;24.00;99.90
23987;DHT22;12514;52.140;5.602;2022-08-18T10:22:59;24.10;99.90
23987;DHT22;12514;52.140;5.602;2022-08-18T10:25:34;24.20;99.90
23987;DHT22;12514;52.140;5.602;2022-08-18T10:28:00;24.40;99.90
23987;DHT22;12514;52.140;5.602;2022-08-18T10:33:00;24.40;99.90
23987;DHT22;12514;52.140;5.602;2022-08-18T10:41:00;24.10;99.90
23987;DHT22;12514;52.140;5.602;2022-08-18T10:43:39;24.10;99.90
23987;DHT22;12514;52.140;5.602;2022-08-18T10:46:14;24.20;99.90
23987;DHT22;12514;52.140;5.602;2022-08-18T10:48:41;24.00;99.90
23987;DHT22;12514;52.140;5.602;2022-08-18T10:54:29;23.80;99.90
23987;DHT22;12514;52.140;5.602;2022-08-18T10:56:45;24.10;99.90
23987;DHT22;12514;52.140;5.602;2022-08-18T11:05:25;24.30;99.90
23987;DHT22;12514;52.140;5.602;2022-08-18T11:08:04;24.30;99.90
23987;DHT22;12514;52.140;5.602;2022-08-18T11:10:42;24.30;99.90
23987;DHT22;12514;52.140;5.602;2022-08-18T11:19:08;24.40;99.90
23987;DHT22;12514;52.140;5.602;2022-08-18T11:21:39;24.30;99.90
23987;DHT22;12514;52.140;5.602;2022-08-18T11:24:19;24.20;99.90
23987;DHT22;12514;52.140;5.602;2022-08-18T11:36:07;24.50;99.90
23987;DHT22;12514;52.140;5.602;2022-08-18T11:38:33;24.60;99.90
23987;DHT22;12514;52.140;5.602;2022-08-18T11:41:18;24.70;99.90
23987;DHT22;12514;52.140;5.602;2022-08-18T11:43:45;24.70;99.90
23987;DHT22;12514;52.140;5.602;2022-08-18T11:48:50;24.70;99.90
23987;DHT22;12514;52.140;5.602;2022-08-18T11:51:22;24.60;99.90
23987;DHT22;12514;52.140;5.602;2022-08-18T11:56:47;24.40;99.90
23987;DHT22;12514;52.140;5.602;2022-08-18T12:02:01;24.20;99.90
23987;DHT22;12514;52.140;5.602;2022-08-18T12:04:38;24.40;99.90
23987;DHT22;12514;52.140;5.602;2022-08-18T12:07:12;24.50;99.90
23987;DHT22;12514;52.140;5.602;2022-08-18T12:09:45;24.50;99.90
23987;DHT22;12514;52.140;5.602;2022-08-18T12:12:17;24.60;99.90
23987;DHT22;12514;52.140;5.602;2022-08-18T12:18:05;24.60;99.90
23987;DHT22;12514;52.140;5.602;2022-08-18T12:20:31;24.60;99.90
23987;DHT22;12514;52.140;5.602;2022-08-18T12:22:56;24.60;99.90
23987;DHT22;12514;52.140;5.602;2022-08-18T12:25:22;24.70;99.90
23987;DHT22;12514;52.140;5.602;2022-08-18T12:27:48;24.80;99.90
23987;DHT22;12514;52.140;5.602;2022-08-18T12:33:35;25.30;99.90
23987;DHT22;12514;52.140;5.602;2022-08-18T12:36:04;25.30;99.90
23987;DHT22;12514;52.140;5.602;2022-08-18T12:38:31;25.30;99.90
23987;DHT22;12514;52.140;5.602;2022-08-18T12:40:57;25.50;99.90
23987;DHT22;12514;52.140;5.602;2022-08-18T12:43:23;25.60;99.90
23987;DHT22;12514;52.140;5.602;2022-08-18T12:49:16;25.40;99.90
23987;DHT22;12514;52.140;5.602;2022-08-18T12:51:43;25.30;99.90
23987;DHT22;12514;52.140;5.602;2022-08-18T12:54:10;25.20;99.90
23987;DHT22;12514;52.140;5.602;2022-08-18T12:56:48;25.10;99.90
23987;DHT22;12514;52.140;5.602;2022-08-18T12:59:14;25.10;99.90
23987;DHT22;12514;52.140;5.602;2022-08-18T13:05:02;25.20;99.90
23987;DHT22;12514;52.140;5.602;2022-08-18T13:07:28;25.20;99.90
23987;DHT22;12514;52.140;5.602;2022-08-18T13:09:55;25.30;99.90
23987;DHT22;12514;52.140;5.602;2022-08-18T13:12:22;25.30;99.90
23987;DHT22;12514;52.140;5.602;2022-08-18T13:14:50;25.30;99.90
23987;DHT22;12514;52.140;5.602;2022-08-18T13:20:37;25.60;99.90
23987;DHT22;12514;52.140;5.602;2022-08-18T13:23:03;25.70;99.90
23987;DHT22;12514;52.140;5.602;2022-08-18T13:25:29;25.60;99.90
23987;DHT22;12514;52.140;5.602;2022-08-18T13:27:55;25.60;99.90
23987;DHT22;12514;52.140;5.602;2022-08-18T13:30:21;25.50;99.90
23987;DHT22;12514;52.140;5.602;2022-08-18T13:36:28;25.70;99.90
23987;DHT22;12514;52.140;5.602;2022-08-18T13:41:39;25.50;99.90
23987;DHT22;12514;52.140;5.602;2022-08-18T13:44:07;25.40;99.90
23987;DHT22;12514;52.140;5.602;2022-08-18T13:46:33;25.30;99.90
23987;DHT22;12514;52.140;5.602;2022-08-18T13:48:58;25.40;99.90
23987;DHT22;12514;52.140;5.602;2022-08-18T13:51:26;25.50;99.90
23987;DHT22;12514;52.140;5.602;2022-08-18T13:53:52;25.60;99.90
23987;DHT22;12514;52.140;5.602;2022-08-18T13:56:18;25.60;99.90
23987;DHT22;12514;52.140;5.602;2022-08-18T13:58:45;25.70;99.90
23987;DHT22;12514;52.140;5.602;2022-08-18T14:01:11;25.80;99.90
23987;DHT22;12514;52.140;5.602;2022-08-18T14:03:37;25.70;99.90
23987;DHT22;12514;52.140;5.602;2022-08-18T14:06:04;25.60;99.90
23987;DHT22;12514;52.140;5.602;2022-08-18T14:08:30;25.70;99.90
23987;DHT22;12514;52.140;5.602;2022-08-18T14:10:58;25.70;99.90
23987;DHT22;12514;52.140;5.602;2022-08-18T14:13:26;25.80;99.90
23987;DHT22;12514;52.140;5.602;2022-08-18T14:15:53;25.90;99.90
23987;DHT22;12514;52.140;5.602;2022-08-18T14:18:23;25.80;99.90
23987;DHT22;12514;52.140;5.602;2022-08-18T14:20:49;25.70;99.90
23987;DHT22;12514;52.140;5.602;2022-08-18T14:23:34;25.60;99.90
23987;DHT22;12514;52.140;5.602;2022-08-18T14:26:18;25.70;99.90
23987;DHT22;12514;52.140;5.602;2022-08-18T14:29:02;25.90;99.90
23987;DHT22;12514;52.140;5.602;2022-08-18T14:31:28;25.90;99.90
23987;DHT22;12514;52.140;5.602;2022-08-18T14:33:55;25.90;99.90
23987;DHT22;12514;52.140;5.602;2022-08-18T14:36:21;25.90;99.90
23987;DHT22;12514;52.140;5.602;2022-08-18T14:38:49;26.00;99.90
23987;DHT22;12514;52.140;5.602;2022-08-18T14:41:15;26.20;99.90
23987;DHT22;12514;52.140;5.602;2022-08-18T14:43:41;26.10;99.90
23987;DHT22;12514;52.140;5.602;2022-08-18T14:46:09;25.90;99.90
23987;DHT22;12514;52.140;5.602;2022-08-18T14:48:35;25.90;99.90
23987;DHT22;12514;52.140;5.602;2022-08-18T14:51:02;26.10;99.90
23987;DHT22;12514;52.140;5.602;2022-08-18T14:53:30;26.20;99.90
23987;DHT22;12514;52.140;5.602;2022-08-18T14:55:56;26.30;99.90
23987;DHT22;12514;52.140;5.602;2022-08-18T14:58:25;26.30;99.90
23987;DHT22;12514;52.140;5.602;2022-08-18T15:00:53;26.30;99.90
23987;DHT22;12514;52.140;5.602;2022-08-18T15:03:19;26.30;99.90
23987;DHT22;12514;52.140;5.602;2022-08-18T15:05:45;26.00;99.90
23987;DHT22;12514;52.140;5.602;2022-08-18T15:08:10;25.80;99.90
23987;DHT22;12514;52.140;5.602;2022-08-18T15:10:37;25.80;99.90
23987;DHT22;12514;52.140;5.602;2022-08-18T15:13:03;25.80;99.90
23987;DHT22;12514;52.140;5.602;2022-08-18T15:15:29;25.80;99.90
23987;DHT22;12514;52.140;5.602;2022-08-18T15:21:17;26.00;99.90
23987;DHT22;12514;52.140;5.602;2022-08-18T15:24:01;25.90;99.90
23987;DHT22;12514;52.140;5.602;2022-08-18T15:26:45;25.40;99.90
23987;DHT22;12514;52.140;5.602;2022-08-18T15:29:12;25.30;99.90
23987;DHT22;12514;52.140;5.602;2022-08-18T15:31:38;25.50;99.90
23987;DHT22;12514;52.140;5.602;2022-08-18T15:34:04;25.70;99.90
23987;DHT22;12514;52.140;5.602;2022-08-18T15:36:30;25.60;99.90
23987;DHT22;12514;52.140;5.602;2022-08-18T15:38:58;25.80;99.90
23987;DHT22;12514;52.140;5.602;2022-08-18T15:43:55;25.60;99.90
23987;DHT22;12514;52.140;5.602;2022-08-18T15:46:21;25.70;99.90
23987;DHT22;12514;52.140;5.602;2022-08-18T15:48:47;25.60;99.90
23987;DHT22;12514;52.140;5.602;2022-08-18T15:51:13;25.60;99.90
23987;DHT22;12514;52.140;5.602;2022-08-18T15:53:39;25.50;99.90
23987;DHT22;12514;52.140;5.602;2022-08-18T15:56:05;25.70;99.90
23987;DHT22;12514;52.140;5.602;2022-08-18T15:58:31;25.90;99.90
23987;DHT22;12514;52.140;5.602;2022-08-18T16:00:56;25.80;99.90
23987;DHT22;12514;52.140;5.602;2022-08-18T16:06:44;25.80;99.90
23987;DHT22;12514;52.140;5.602;2022-08-18T16:09:12;25.50;99.90
23987;DHT22;12514;52.140;5.602;2022-08-18T16:11:37;25.50;99.90
23987;DHT22;12514;52.140;5.602;2022-08-18T16:14:05;25.30;99.90
23987;DHT22;12514;52.140;5.602;2022-08-18T16:16:33;25.50;99.90
23987;DHT22;12514;52.140;5.602;2022-08-18T16:18:58;25.70;99.90
23987;DHT22;12514;52.140;5.602;2022-08-18T16:21:26;25.80;99.90
23987;DHT22;12514;52.140;5.602;2022-08-18T16:23:52;25.90;99.90
23987;DHT22;12514;52.140;5.602;2022-08-18T16:26:20;25.70;99.90
23987;DHT22;12514;52.140;5.602;2022-08-18T16:28:48;25.50;99.90
23987;DHT22;12514;52.140;5.602;2022-08-18T16:31:21;25.60;99.90
23987;DHT22;12514;52.140;5.602;2022-08-18T16:37:27;25.20;99.90
23987;DHT22;12514;52.140;5.602;2022-08-18T16:39:54;25.30;99.90
23987;DHT22;12514;52.140;5.602;2022-08-18T16:42:20;25.20;99.90
23987;DHT22;12514;52.140;5.602;2022-08-18T16:44:45;25.30;99.90
23987;DHT22;12514;52.140;5.602;2022-08-18T16:47:11;25.50;99.90
23987;DHT22;12514;52.140;5.602;2022-08-18T16:49:42;25.50;99.90
23987;DHT22;12514;52.140;5.602;2022-08-18T16:52:09;25.20;99.90
23987;DHT22;12514;52.140;5.602;2022-08-18T16:54:35;25.40;99.90
23987;DHT22;12514;52.140;5.602;2022-08-18T16:57:00;25.40;99.90
23987;DHT22;12514;52.140;5.602;2022-08-18T16:59:26;25.60;99.90
23987;DHT22;12514;52.140;5.602;2022-08-18T17:02:10;25.70;99.90
23987;DHT22;12514;52.140;5.602;2022-08-18T17:04:55;25.60;99.90
23987;DHT22;12514;52.140;5.602;2022-08-18T17:07:31;25.40;99.90
23987;DHT22;12514;52.140;5.602;2022-08-18T17:09:58;25.10;99.90
23987;DHT22;12514;52.140;5.602;2022-08-18T17:12:25;25.00;99.90
23987;DHT22;12514;52.140;5.602;2022-08-18T17:14:51;25.00;99.90
23987;DHT22;12514;52.140;5.602;2022-08-18T17:17:17;25.00;99.90
23987;DHT22;12514;52.140;5.602;2022-08-18T17:19:44;25.00;99.90
23987;DHT22;12514;52.140;5.602;2022-08-18T17:22:11;25.00;99.90
23987;DHT22;12514;52.140;5.602;2022-08-18T17:24:37;24.80;99.90
23987;DHT22;12514;52.140;5.602;2022-08-18T17:27:15;24.80;99.90
23987;DHT22;12514;52.140;5.602;2022-08-18T17:29:49;24.80;99.90
23987;DHT22;12514;52.140;5.602;2022-08-18T17:32:21;24.80;99.90
23987;DHT22;12514;52.140;5.602;2022-08-18T17:35:10;24.70;99.90
23987;DHT22;12514;52.140;5.602;2022-08-18T17:37:45;24.70;99.90
23987;DHT22;12514;52.140;5.602;2022-08-18T17:40:25;24.60;99.90
23987;DHT22;12514;52.140;5.602;2022-08-18T17:42:52;24.50;99.90
23987;DHT22;12514;52.140;5.602;2022-08-18T17:45:18;24.50;99.90
23987;DHT22;12514;52.140;5.602;2022-08-18T17:48:06;24.60;99.90
23987;DHT22;12514;52.140;5.602;2022-08-18T17:50:36;24.60;99.90
23987;DHT22;12514;52.140;5.602;2022-08-18T17:53:24;24.80;99.90
23987;DHT22;12514;52.140;5.602;2022-08-18T17:58:38;24.80;99.90
23987;DHT22;12514;52.140;5.602;2022-08-18T18:01:06;24.60;99.90
23987;DHT22;12514;52.140;5.602;2022-08-18T18:03:32;24.60;99.90
23987;DHT22;12514;52.140;5.602;2022-08-18T18:09:37;24.40;99.90
23987;DHT22;12514;52.140;5.602;2022-08-18T18:11:41;24.50;99.90
23987;DHT22;12514;52.140;5.602;2022-08-18T18:14:30;24.50;99.90
23987;DHT22;12514;52.140;5.602;2022-08-18T18:17:17;24.50;99.90
23987;DHT22;12514;52.140;5.602;2022-08-18T18:19:48;24.40;99.90
23987;DHT22;12514;52.140;5.602;2022-08-18T18:22:26;24.30;99.90
23987;DHT22;12514;52.140;5.602;2022-08-18T18:24:58;24.20;99.90
23987;DHT22;12514;52.140;5.602;2022-08-18T18:30:05;24.30;99.90
23987;DHT22;12514;52.140;5.602;2022-08-18T18:35:56;24.30;99.90
23987;DHT22;12514;52.140;5.602;2022-08-18T18:38:35;24.10;99.90
23987;DHT22;12514;52.140;5.602;2022-08-18T18:43:42;24.00;99.90
23987;DHT22;12514;52.140;5.602;2022-08-18T18:46:27;24.00;99.90
23987;DHT22;12514;52.140;5.602;2022-08-18T18:58:47;23.60;99.90
23987;DHT22;12514;52.140;5.602;2022-08-18T19:01:34;23.50;99.90
23987;DHT22;12514;52.140;5.602;2022-08-18T19:07:29;23.50;99.90
23987;DHT22;12514;52.140;5.602;2022-08-18T19:10:09;23.40;99.90
23987;DHT22;12514;52.140;5.602;2022-08-18T19:12:49;23.40;99.90
23987;DHT22;12514;52.140;5.602;2022-08-18T19:15:18;23.20;99.90
23987;DHT22;12514;52.140;5.602;2022-08-18T19:17:46;23.20;99.90
23987;DHT22;12514;52.140;5.602;2022-08-18T19:20:24;23.20;99.90
23987;DHT22;12514;52.140;5.602;2022-08-18T19:23:32;23.10;99.90
23987;DHT22;12514;52.140;5.602;2022-08-18T19:26:00;23.00;99.90
23987;DHT22;12514;52.140;5.602;2022-08-18T19:31:19;23.00;99.90
23987;DHT22;12514;52.140;5.602;2022-08-18T19:33:58;22.90;99.90
23987;DHT22;12514;52.140;5.602;2022-08-18T19:39:25;22.90;99.90
23987;DHT22;12514;52.140;5.602;2022-08-18T19:44:38;22.80;99.90
23987;DHT22;12514;52.140;5.602;2022-08-18T20:01:16;22.20;99.90
23987;DHT22;12514;52.140;5.602;2022-08-18T20:07:28;22.30;99.90
23987;DHT22;12514;52.140;5.602;2022-08-18T20:15:32;22.50;99.90
23987;DHT22;12514;52.140;5.602;2022-08-18T20:32:00;22.40;99.90
23987;DHT22;12514;52.140;5.602;2022-08-18T20:34:31;22.40;99.90
23987;DHT22;12514;52.140;5.602;2022-08-18T20:36:59;22.30;99.90
23987;DHT22;12514;52.140;5.602;2022-08-18T20:42:00;22.30;99.90
23987;DHT22;12514;52.140;5.602;2022-08-18T20:44:41;22.30;99.90